Time;durP1;ratioP1;P1;durP2;ratioP2;P2;SDS_P1;SDS_P2;PMS_P1;PMS_P2;Temp;Humidity;BMP_temperature;BMP_pressure;BME280_temperature;BME280_humidity;BME280_pressure;Samples;Min_cycle;Max_cycle;Signal;HPM_P1;HPM_P2
2021/07/07 00:01:57;;;;;;;4.43;2.67;;;23.60;96.10;;;;;;5082904;28;20028;-80
2021/07/07 00:04:23;;;;;;;5.20;3.30;;;23.60;96.20;;;;;;5101244;28;20058;-80
2021/07/07 00:06:49;;;;;;;4.97;2.85;;;23.40;96.40;;;;;;5109972;28;20059;-80
2021/07/07 00:09:15;;;;;;;4.15;2.72;;;23.20;97.20;;;;;;5086290;28;20114;-80
2021/07/07 00:11:40;;;;;;;7.25;3.80;;;23.10;97.00;;;;;;5110206;28;20135;-81
2021/07/07 00:14:06;;;;;;;4.55;3.33;;;23.10;97.10;;;;;;5098500;28;20024;-80
2021/07/07 00:16:32;;;;;;;8.43;3.28;;;23.10;97.10;;;;;;5099858;28;20030;-80
2021/07/07 00:18:57;;;;;;;4.85;3.47;;;23.10;97.20;;;;;;5090674;28;20062;-80
2021/07/07 00:21:23;;;;;;;4.72;2.75;;;23.10;97.50;;;;;;5100677;28;20023;-81
2021/07/07 00:23:49;;;;;;;5.25;3.08;;;23.00;97.70;;;;;;5106910;28;20027;-80
2021/07/07 00:26:14;;;;;;;4.65;3.00;;;22.80;97.80;;;;;;5098555;28;20776;-80
2021/07/07 00:28:41;;;;;;;5.90;2.85;;;23.00;97.60;;;;;;5112459;28;20024;-80
2021/07/07 00:31:06;;;;;;;4.50;2.83;;;23.10;97.60;;;;;;5108149;28;20031;-79
2021/07/07 00:33:32;;;;;;;4.35;2.90;;;23.10;97.30;;;;;;5096430;28;20564;-79
2021/07/07 00:35:58;;;;;;;4.90;2.78;;;23.10;97.30;;;;;;5095761;28;20036;-81
2021/07/07 00:38:23;;;;;;;5.13;2.85;;;23.10;97.20;;;;;;5101623;28;20393;-80
2021/07/07 00:40:49;;;;;;;7.35;3.60;;;23.00;97.30;;;;;;5079089;28;20036;-80
2021/07/07 00:43:16;;;;;;;4.90;2.97;;;23.00;97.50;;;;;;5101833;28;20016;-80
2021/07/07 00:45:43;;;;;;;5.15;2.95;;;23.00;97.80;;;;;;5110474;28;20019;-80
2021/07/07 00:48:09;;;;;;;4.07;2.80;;;23.00;97.50;;;;;;5111817;28;20491;-80
2021/07/07 00:50:34;;;;;;;7.18;3.08;;;23.00;97.60;;;;;;5111826;28;20458;-81
2021/07/07 00:53:00;;;;;;;6.65;3.00;;;22.90;97.50;;;;;;5101291;28;20036;-80
2021/07/07 00:55:26;;;;;;;5.03;2.92;;;23.00;97.30;;;;;;5101107;28;21698;-80
2021/07/07 00:57:52;;;;;;;5.35;3.28;;;23.10;97.30;;;;;;5108494;28;20024;-80
2021/07/07 01:00:21;;;;;;;4.25;3.00;;;23.10;97.50;;;;;;5110790;28;20503;-79
2021/07/07 01:02:49;;;;;;;4.57;2.95;;;23.00;97.70;;;;;;5105753;28;20053;-80
2021/07/07 01:05:16;;;;;;;6.55;3.10;;;22.90;97.80;;;;;;5098340;28;20016;-80
2021/07/07 01:07:43;;;;;;;8.52;3.38;;;22.80;97.90;;;;;;5110319;28;20034;-79
2021/07/07 01:10:11;;;;;;;6.30;3.17;;;22.80;97.80;;;;;;5102530;28;20104;-80
2021/07/07 01:12:37;;;;;;;5.25;3.35;;;22.80;98.00;;;;;;5108578;28;20076;-80
2021/07/07 01:15:07;;;;;;;4.85;3.20;;;22.80;97.90;;;;;;5102865;28;20081;-80
2021/07/07 01:17:33;;;;;;;7.80;4.07;;;22.90;97.90;;;;;;5110924;28;20084;-80
2021/07/07 01:20:11;;;;;;;4.88;3.25;;;22.80;97.90;;;;;;5095914;28;20030;-80
2021/07/07 01:22:37;;;;;;;6.20;2.92;;;22.90;97.90;;;;;;5101810;28;20026;-80
2021/07/07 01:25:04;;;;;;;4.90;3.25;;;22.90;97.70;;;;;;5091916;28;20040;-80
2021/07/07 01:27:31;;;;;;;7.60;3.78;;;23.00;97.50;;;;;;5095706;28;20076;-80
2021/07/07 01:29:57;;;;;;;5.13;3.35;;;23.00;97.50;;;;;;5101738;28;20047;-80
2021/07/07 01:32:23;;;;;;;5.82;3.08;;;23.00;97.80;;;;;;5104107;28;20039;-80
2021/07/07 01:34:50;;;;;;;7.07;3.00;;;22.90;97.90;;;;;;5104012;28;20115;-80
2021/07/07 01:37:16;;;;;;;6.03;3.80;;;22.60;98.30;;;;;;5099330;28;20028;-80
2021/07/07 01:39:42;;;;;;;6.22;3.25;;;22.60;98.10;;;;;;5087952;28;20568;-79
2021/07/07 01:42:08;;;;;;;6.10;3.60;;;22.50;98.30;;;;;;5112261;28;20028;-78
2021/07/07 01:44:33;;;;;;;8.07;3.53;;;22.60;98.20;;;;;;5096318;28;20023;-80
2021/07/07 01:47:00;;;;;;;4.22;2.78;;;22.50;98.30;;;;;;5097328;28;20046;-80
2021/07/07 01:49:26;;;;;;;5.32;3.25;;;22.60;98.10;;;;;;5095664;28;20034;-85
2021/07/07 01:51:51;;;;;;;4.65;3.15;;;22.60;98.50;;;;;;5111258;28;20035;-80
2021/07/07 01:54:17;;;;;;;5.32;3.00;;;22.50;98.60;;;;;;5101093;28;20032;-79
2021/07/07 01:56:43;;;;;;;6.45;3.90;;;22.50;98.30;;;;;;5097462;28;20115;-79
2021/07/07 01:59:08;;;;;;;4.63;2.75;;;22.50;98.00;;;;;;5110877;28;20072;-80
2021/07/07 02:01:34;;;;;;;4.95;3.08;;;22.60;97.90;;;;;;5111107;28;20106;-80
2021/07/07 02:04:00;;;;;;;5.43;3.28;;;22.60;98.00;;;;;;5105354;28;20028;-79
2021/07/07 02:06:25;;;;;;;5.38;2.78;;;22.50;98.10;;;;;;5104200;28;20032;-79
2021/07/07 02:08:51;;;;;;;8.43;3.60;;;22.50;98.20;;;;;;5103735;28;20032;-80
2021/07/07 02:11:17;;;;;;;10.20;4.07;;;22.50;98.20;;;;;;5111275;28;20401;-79
2021/07/07 02:13:42;;;;;;;6.43;3.22;;;22.60;98.00;;;;;;5103234;28;20112;-80
2021/07/07 02:16:08;;;;;;;7.25;3.25;;;22.60;97.90;;;;;;5108763;28;20769;-81
2021/07/07 02:18:34;;;;;;;4.57;2.97;;;22.60;98.00;;;;;;5092967;28;20111;-80
2021/07/07 02:21:00;;;;;;;4.95;3.10;;;22.50;98.00;;;;;;5102028;28;20115;-80
2021/07/07 02:23:27;;;;;;;7.25;3.83;;;22.50;98.20;;;;;;5108244;28;20026;-80
2021/07/07 02:25:53;;;;;;;7.13;2.90;;;22.50;98.10;;;;;;5103801;28;20032;-80
2021/07/07 02:28:24;;;;;;;9.15;3.33;;;22.50;98.10;;;;;;5103322;28;20027;-79
2021/07/07 02:30:52;;;;;;;5.20;3.30;;;22.50;98.10;;;;;;5089725;28;20040;-80
2021/07/07 02:33:19;;;;;;;6.88;3.65;;;22.40;98.30;;;;;;5096815;28;20067;-80
2021/07/07 02:35:45;;;;;;;5.15;3.50;;;22.40;98.30;;;;;;5094352;28;20112;-85
2021/07/07 02:38:15;;;;;;;7.05;3.00;;;22.30;98.50;;;;;;5095921;28;20088;-80
2021/07/07 02:40:41;;;;;;;8.70;4.05;;;22.20;98.60;;;;;;5109097;28;20042;-80
2021/07/07 02:43:08;;;;;;;4.82;3.42;;;22.20;98.70;;;;;;5109021;28;20044;-79
2021/07/07 02:45:36;;;;;;;6.30;3.50;;;22.20;98.70;;;;;;5094911;28;20028;-80
2021/07/07 02:48:03;;;;;;;6.53;3.88;;;22.10;98.90;;;;;;5111383;28;20020;-80
2021/07/07 02:50:29;;;;;;;5.43;3.63;;;22.10;98.90;;;;;;5095201;28;20020;-80
2021/07/07 02:52:56;;;;;;;5.50;3.45;;;22.10;99.00;;;;;;5095676;28;20027;-80
2021/07/07 02:55:23;;;;;;;5.25;3.63;;;22.00;99.20;;;;;;5087779;28;20382;-79
2021/07/07 02:58:00;;;;;;;6.47;3.28;;;22.10;99.10;;;;;;5112435;28;20038;-79
2021/07/07 03:00:29;;;;;;;5.47;3.20;;;22.10;99.00;;;;;;5109390;28;20120;-82
2021/07/07 03:03:00;;;;;;;4.20;2.88;;;22.00;99.20;;;;;;5099002;28;20053;-80
2021/07/07 03:05:27;;;;;;;5.60;3.53;;;22.00;99.40;;;;;;5108868;28;20031;-81
2021/07/07 03:07:53;;;;;;;6.72;3.95;;;21.90;99.60;;;;;;5106925;28;20103;-79
2021/07/07 03:10:18;;;;;;;5.57;3.60;;;21.80;99.80;;;;;;5091421;28;20473;-81
2021/07/07 03:12:44;;;;;;;4.57;3.30;;;21.90;99.50;;;;;;5107101;28;20905;-80
2021/07/07 03:15:10;;;;;;;5.38;3.65;;;21.90;99.50;;;;;;5102190;28;20075;-80
2021/07/07 03:17:36;;;;;;;5.05;3.28;;;21.80;99.70;;;;;;5107516;28;20069;-80
2021/07/07 03:20:04;;;;;;;6.15;3.38;;;21.80;99.70;;;;;;5106067;28;20095;-81
2021/07/07 03:22:29;;;;;;;8.10;3.33;;;21.80;99.90;;;;;;5093972;28;20032;-87
2021/07/07 03:24:55;;;;;;;6.20;3.58;;;21.60;99.90;;;;;;5105514;28;20016;-81
2021/07/07 03:27:21;;;;;;;6.95;3.90;;;21.70;99.90;;;;;;5103847;28;20720;-84
2021/07/07 03:29:46;;;;;;;6.07;3.03;;;21.80;99.90;;;;;;5102887;28;20099;-80
2021/07/07 03:32:12;;;;;;;5.25;3.70;;;21.70;99.90;;;;;;5100409;28;20105;-81
2021/07/07 03:34:38;;;;;;;6.28;3.45;;;21.80;99.90;;;;;;5095962;28;20461;-80
2021/07/07 03:37:04;;;;;;;5.32;3.30;;;21.80;99.90;;;;;;5099601;28;20024;-80
2021/07/07 03:39:29;;;;;;;7.05;3.15;;;21.70;99.90;;;;;;5099754;28;21602;-81
2021/07/07 03:41:55;;;;;;;6.93;3.60;;;21.70;99.90;;;;;;5109266;28;20058;-81
2021/07/07 03:44:21;;;;;;;5.72;3.58;;;21.80;99.90;;;;;;5101604;28;20085;-80
2021/07/07 03:46:46;;;;;;;6.78;3.58;;;21.60;99.90;;;;;;5103451;28;20038;-82
2021/07/07 03:49:12;;;;;;;5.10;3.30;;;21.70;99.90;;;;;;5086243;28;20127;-82
2021/07/07 03:51:38;;;;;;;6.03;2.85;;;21.60;99.90;;;;;;5103696;28;20040;-81
2021/07/07 03:54:04;;;;;;;7.18;3.60;;;21.60;99.90;;;;;;5089043;28;20055;-80
2021/07/07 03:56:29;;;;;;;5.60;3.28;;;21.70;99.90;;;;;;5095126;28;20517;-80
2021/07/07 03:58:55;;;;;;;6.30;3.83;;;21.70;99.90;;;;;;5088532;28;20027;-80
2021/07/07 04:01:21;;;;;;;7.55;3.33;;;21.80;99.90;;;;;;5095239;28;20497;-81
2021/07/07 04:03:46;;;;;;;7.63;3.50;;;21.80;99.90;;;;;;5104200;28;20098;-82
2021/07/07 04:06:12;;;;;;;8.02;3.78;;;21.80;99.90;;;;;;5099057;28;20099;-87
2021/07/07 04:08:39;;;;;;;6.97;3.45;;;21.80;99.90;;;;;;5094619;28;20035;-79
2021/07/07 04:11:05;;;;;;;5.43;3.03;;;21.80;99.90;;;;;;5101277;28;20643;-80
2021/07/07 04:13:31;;;;;;;6.28;3.95;;;21.80;99.90;;;;;;5106329;28;20072;-86
2021/07/07 04:15:57;;;;;;;7.65;3.25;;;21.80;99.90;;;;;;5103802;28;20424;-80
2021/07/07 04:18:23;;;;;;;10.13;3.38;;;21.80;99.90;;;;;;5097395;28;20031;-84
2021/07/07 04:20:49;;;;;;;13.35;3.63;;;21.80;99.90;;;;;;5095910;28;20028;-80
2021/07/07 04:23:15;;;;;;;5.45;3.22;;;21.80;99.90;;;;;;5105589;28;20182;-86
2021/07/07 04:25:41;;;;;;;7.10;3.33;;;21.80;99.90;;;;;;5102033;28;20114;-82
2021/07/07 04:28:07;;;;;;;6.35;4.70;;;21.80;99.90;;;;;;5106012;28;20020;-80
2021/07/07 04:30:34;;;;;;;8.88;4.10;;;21.70;99.90;;;;;;5099822;28;20388;-80
2021/07/07 04:33:00;;;;;;;7.90;4.05;;;21.60;99.90;;;;;;5101308;28;20122;-80
2021/07/07 04:35:26;;;;;;;6.55;3.50;;;21.50;99.90;;;;;;5106396;28;20031;-80
2021/07/07 04:37:52;;;;;;;7.32;4.00;;;21.50;99.90;;;;;;5106029;28;20031;-81
2021/07/07 04:40:19;;;;;;;8.73;3.67;;;21.40;99.90;;;;;;5101459;28;20034;-84
2021/07/07 04:42:45;;;;;;;7.05;4.03;;;21.50;99.90;;;;;;5095136;28;20027;-80
2021/07/07 04:45:12;;;;;;;4.40;3.53;;;21.20;99.90;;;;;;5101868;28;20023;-80
2021/07/07 04:47:38;;;;;;;6.18;3.65;;;21.30;99.90;;;;;;5106882;28;20076;-82
2021/07/07 04:50:09;;;;;;;7.55;4.22;;;21.40;99.90;;;;;;5110523;28;20103;-81
2021/07/07 04:52:35;;;;;;;7.43;3.95;;;21.40;99.90;;;;;;5083620;28;20044;-80
2021/07/07 04:55:03;;;;;;;6.15;4.18;;;21.50;99.90;;;;;;5089885;28;20075;-81
2021/07/07 04:57:40;;;;;;;9.30;3.47;;;21.50;99.90;;;;;;5102492;28;20111;-81
2021/07/07 05:00:08;;;;;;;7.13;3.72;;;21.50;99.90;;;;;;5109960;28;20016;-80
2021/07/07 05:02:34;;;;;;;6.10;3.60;;;21.60;99.90;;;;;;5094458;28;20501;-82
2021/07/07 05:05:00;;;;;;;5.55;4.00;;;21.60;99.90;;;;;;5103179;28;20036;-80
2021/07/07 05:07:25;;;;;;;6.03;3.85;;;21.70;99.90;;;;;;5103072;28;20026;-80
2021/07/07 05:09:51;;;;;;;5.15;3.88;;;21.70;99.90;;;;;;5096405;28;20032;-83
2021/07/07 05:12:17;;;;;;;6.97;3.50;;;21.70;99.90;;;;;;5102985;28;20121;-81
2021/07/07 05:14:43;;;;;;;4.93;3.28;;;21.70;99.90;;;;;;5107023;28;20032;-80
2021/07/07 05:17:08;;;;;;;8.88;4.18;;;21.50;99.90;;;;;;5079958;28;20398;-81
2021/07/07 05:19:34;;;;;;;7.55;4.25;;;21.40;99.90;;;;;;5100683;28;20024;-81
2021/07/07 05:22:00;;;;;;;23.85;4.68;;;21.40;99.90;;;;;;5106590;28;20050;-81
2021/07/07 05:24:25;;;;;;;6.45;3.70;;;21.40;99.90;;;;;;5104176;28;20400;-82
2021/07/07 05:26:51;;;;;;;6.40;3.83;;;21.20;99.90;;;;;;5092779;28;20038;-80
2021/07/07 05:29:17;;;;;;;5.50;3.95;;;21.20;99.90;;;;;;5100861;28;20115;-80
2021/07/07 05:31:43;;;;;;;6.75;3.65;;;21.20;99.90;;;;;;5083737;28;20616;-79
2021/07/07 05:34:09;;;;;;;7.88;3.97;;;21.10;99.90;;;;;;5105178;28;20012;-81
2021/07/07 05:36:35;;;;;;;10.45;4.72;;;21.10;99.90;;;;;;5097477;28;20023;-78
2021/07/07 05:39:02;;;;;;;5.15;3.88;;;21.20;99.90;;;;;;5099886;28;20026;-79
2021/07/07 05:41:28;;;;;;;8.35;4.43;;;21.20;99.90;;;;;;5101315;28;20024;-79
2021/07/07 05:43:54;;;;;;;5.65;3.78;;;21.10;99.90;;;;;;5105775;28;20050;-78
2021/07/07 05:46:20;;;;;;;11.95;4.40;;;21.20;99.90;;;;;;5088018;28;20032;-78
2021/07/07 05:48:47;;;;;;;6.03;3.85;;;21.30;99.90;;;;;;5092250;28;20113;-81
2021/07/07 05:51:14;;;;;;;6.18;3.75;;;21.20;99.90;;;;;;5104110;28;20039;-80
2021/07/07 05:53:40;;;;;;;7.38;4.13;;;21.40;99.90;;;;;;5099045;28;20099;-78
2021/07/07 05:56:06;;;;;;;6.68;4.13;;;21.50;99.90;;;;;;5104122;28;20098;-78
2021/07/07 05:58:31;;;;;;;7.50;4.50;;;21.70;99.90;;;;;;5100769;28;20024;-79
2021/07/07 06:00:57;;;;;;;5.78;3.78;;;21.70;99.90;;;;;;5105022;28;20019;-77
2021/07/07 06:03:23;;;;;;;6.13;3.30;;;21.70;99.90;;;;;;5099875;28;20040;-80
2021/07/07 06:05:49;;;;;;;5.97;3.58;;;21.80;99.90;;;;;;5100325;28;20439;-81
2021/07/07 06:08:14;;;;;;;7.63;4.38;;;21.80;99.90;;;;;;5103585;28;20032;-78
2021/07/07 06:10:41;;;;;;;8.82;4.32;;;21.90;99.90;;;;;;5097153;28;20044;-78
2021/07/07 06:13:07;;;;;;;5.90;3.95;;;22.00;99.90;;;;;;5101374;28;20108;-77
2021/07/07 06:15:36;;;;;;;8.90;4.15;;;22.00;99.90;;;;;;5103273;28;20067;-77
2021/07/07 06:18:03;;;;;;;6.18;4.28;;;22.10;99.90;;;;;;5103547;28;20138;-77
2021/07/07 06:20:29;;;;;;;8.20;3.80;;;22.10;99.90;;;;;;5097824;28;20035;-78
2021/07/07 06:22:55;;;;;;;6.65;4.43;;;22.10;99.90;;;;;;5100037;28;21906;-79
2021/07/07 06:25:21;;;;;;;7.38;4.07;;;22.20;99.90;;;;;;5091492;28;20504;-78
2021/07/07 06:27:47;;;;;;;9.98;4.85;;;22.30;99.90;;;;;;5100250;28;20071;-78
2021/07/07 06:30:16;;;;;;;5.28;3.78;;;22.30;99.90;;;;;;5097652;28;20097;-77
2021/07/07 06:32:44;;;;;;;5.80;4.15;;;22.30;99.90;;;;;;5086935;28;20560;-79
2021/07/07 06:35:10;;;;;;;6.55;3.97;;;22.40;99.90;;;;;;5078205;28;20424;-77
2021/07/07 06:37:37;;;;;;;10.15;4.55;;;22.50;99.90;;;;;;5100480;28;20531;-79
2021/07/07 06:40:04;;;;;;;16.15;5.03;;;22.50;99.90;;;;;;5097625;28;20110;-79
2021/07/07 06:42:31;;;;;;;15.23;4.93;;;22.50;99.90;;;;;;5087273;28;20024;-82
2021/07/07 06:44:58;;;;;;;5.45;3.85;;;22.60;99.90;;;;;;5102248;28;20028;-79
2021/07/07 06:47:24;;;;;;;5.57;4.25;;;22.70;99.90;;;;;;5067816;28;20036;-82
2021/07/07 06:49:49;;;;;;;11.77;4.35;;;22.70;99.90;;;;;;5070759;28;21831;-79
2021/07/07 06:52:16;;;;;;;9.15;5.03;;;22.80;99.90;;;;;;5072298;28;20046;-78
2021/07/07 06:54:43;;;;;;;10.32;4.68;;;22.90;99.90;;;;;;5071768;28;20059;-82
2021/07/07 06:57:10;;;;;;;9.05;4.55;;;22.90;99.90;;;;;;5079538;28;20101;-79
2021/07/07 06:59:36;;;;;;;8.93;4.40;;;23.10;99.90;;;;;;5070191;28;20121;-83
2021/07/07 07:02:03;;;;;;;6.25;3.67;;;23.30;99.90;;;;;;5076875;28;20024;-78
2021/07/07 07:04:30;;;;;;;7.63;4.55;;;23.40;99.90;;;;;;5073648;28;20055;-78
2021/07/07 07:06:57;;;;;;;6.05;4.03;;;23.70;99.90;;;;;;5077988;28;20660;-80
2021/07/07 07:09:24;;;;;;;7.68;4.80;;;23.90;99.40;;;;;;5084815;28;21868;-77
2021/07/07 07:11:49;;;;;;;7.63;4.72;;;24.10;99.30;;;;;;5077225;28;20059;-76
2021/07/07 07:14:15;;;;;;;5.65;4.22;;;24.30;99.00;;;;;;5074209;28;20618;-78
2021/07/07 07:16:42;;;;;;;7.35;4.28;;;24.60;98.80;;;;;;5074446;28;20023;-77
2021/07/07 07:19:09;;;;;;;7.13;4.40;;;24.90;99.20;;;;;;5074834;28;20028;-78
2021/07/07 07:21:35;;;;;;;5.32;3.80;;;25.20;98.10;;;;;;5064438;28;20174;-77
2021/07/07 07:24:00;;;;;;;5.70;4.25;;;25.50;97.80;;;;;;5078246;28;20045;-79
2021/07/07 07:26:28;;;;;;;4.85;3.55;;;25.60;97.80;;;;;;5075496;28;20050;-78
2021/07/07 07:28:54;;;;;;;7.53;4.45;;;25.80;97.80;;;;;;5083755;28;20024;-77
2021/07/07 07:31:20;;;;;;;8.15;4.43;;;25.90;97.10;;;;;;5075190;28;20044;-77
2021/07/07 07:33:46;;;;;;;6.75;4.10;;;26.30;97.10;;;;;;5076928;28;20094;-77
2021/07/07 07:36:12;;;;;;;7.30;3.95;;;27.10;96.60;;;;;;5076217;28;20024;-78
2021/07/07 07:38:41;;;;;;;6.60;4.40;;;27.90;95.30;;;;;;5077583;28;20020;-78
2021/07/07 07:41:07;;;;;;;8.23;3.75;;;28.40;94.10;;;;;;5081253;27;20023;-79
2021/07/07 07:43:33;;;;;;;7.55;3.70;;;29.30;93.00;;;;;;5084427;28;20024;-78
2021/07/07 07:45:59;;;;;;;6.55;3.80;;;29.90;91.80;;;;;;5074229;28;20120;-78
2021/07/07 07:48:26;;;;;;;7.82;4.10;;;30.10;91.50;;;;;;5073943;28;20133;-78
2021/07/07 07:50:53;;;;;;;9.52;4.03;;;30.30;91.20;;;;;;5075660;28;20512;-79
2021/07/07 07:53:19;;;;;;;6.72;4.13;;;30.70;91.30;;;;;;5079255;28;20031;-76
2021/07/07 07:55:45;;;;;;;4.40;3.22;;;30.20;91.80;;;;;;5074436;28;20653;-78
2021/07/07 07:58:13;;;;;;;5.95;3.35;;;29.90;92.00;;;;;;5075413;28;20658;-78
2021/07/07 08:00:39;;;;;;;7.40;3.80;;;30.30;91.80;;;;;;5072518;28;20028;-78
2021/07/07 08:03:05;;;;;;;4.95;3.40;;;29.70;91.60;;;;;;5077796;28;20035;-77
2021/07/07 08:05:31;;;;;;;6.60;3.53;;;29.00;92.40;;;;;;5073481;28;20105;-77
2021/07/07 08:08:01;;;;;;;6.63;3.53;;;29.00;93.00;;;;;;5080062;28;20043;-76
2021/07/07 08:10:27;;;;;;;4.50;3.05;;;28.70;93.00;;;;;;5075985;28;20031;-74
2021/07/07 08:12:53;;;;;;;5.07;2.90;;;29.10;93.20;;;;;;5073593;28;20040;-76
2021/07/07 08:15:22;;;;;;;6.03;3.70;;;29.20;92.50;;;;;;5075840;27;20115;-78
2021/07/07 08:17:48;;;;;;;4.43;3.45;;;29.20;92.30;;;;;;5074282;28;20028;-78
2021/07/07 08:20:15;;;;;;;6.30;4.10;;;29.00;92.30;;;;;;5075243;28;20039;-77
2021/07/07 08:22:41;;;;;;;5.97;2.92;;;28.80;92.30;;;;;;5078110;28;20040;-77
2021/07/07 08:25:08;;;;;;;4.63;2.78;;;28.90;92.40;;;;;;5076633;28;20028;-78
2021/07/07 08:27:34;;;;;;;4.40;3.00;;;28.90;92.50;;;;;;5079036;28;20027;-76
2021/07/07 08:29:59;;;;;;;7.05;3.22;;;28.90;92.50;;;;;;5076956;28;20072;-79
2021/07/07 08:32:25;;;;;;;5.53;3.45;;;28.70;93.40;;;;;;5075170;28;20051;-77
2021/07/07 08:34:51;;;;;;;4.25;3.15;;;28.80;93.30;;;;;;5093184;28;20554;-79
2021/07/07 08:37:16;;;;;;;7.05;3.53;;;29.10;92.50;;;;;;5090581;28;20043;-76
2021/07/07 08:39:42;;;;;;;7.05;3.53;;;29.00;91.90;;;;;;5095873;28;20028;-78
2021/07/07 08:42:08;;;;;;;4.57;2.97;;;29.20;91.70;;;;;;5102347;28;20461;-77
2021/07/07 08:44:35;;;;;;;4.82;3.47;;;29.20;92.20;;;;;;5092399;28;20024;-78
2021/07/07 08:47:01;;;;;;;9.15;3.42;;;29.10;92.50;;;;;;5091621;28;20032;-77
2021/07/07 08:49:26;;;;;;;6.30;3.38;;;29.40;92.80;;;;;;5091453;28;20517;-78
2021/07/07 08:51:52;;;;;;;8.15;3.67;;;29.20;92.30;;;;;;5096691;28;20135;-83
2021/07/07 08:54:19;;;;;;;6.30;3.22;;;29.10;92.80;;;;;;5101520;28;20039;-77
2021/07/07 08:56:46;;;;;;;6.38;3.30;;;29.20;92.60;;;;;;5106259;28;20654;-77
2021/07/07 08:59:14;;;;;;;5.38;4.05;;;29.50;92.30;;;;;;5105275;28;20031;-81
2021/07/07 09:02:00;;;;;;;5.20;3.45;;;29.40;92.40;;;;;;5100637;28;20034;-84
2021/07/07 09:04:30;;;;;;;5.70;3.33;;;29.70;92.00;;;;;;5093718;28;20393;-78
2021/07/07 09:07:05;;;;;;;9.52;3.33;;;29.80;92.30;;;;;;5087664;28;20151;-77
2021/07/07 09:09:52;;;;;;;6.30;3.28;;;29.60;92.30;;;;;;5106564;28;20157;-79
2021/07/07 09:12:21;;;;;;;7.57;3.22;;;29.90;91.80;;;;;;5101963;28;20078;-81
2021/07/07 09:14:51;;;;;;;4.72;3.25;;;30.10;91.50;;;;;;5087837;28;20050;-77
2021/07/07 09:17:19;;;;;;;6.28;3.25;;;30.30;91.20;;;;;;5092709;28;20032;-78
2021/07/07 09:19:46;;;;;;;4.68;2.80;;;29.80;91.80;;;;;;5107159;28;20077;-78
2021/07/07 09:22:13;;;;;;;7.18;3.72;;;30.10;91.40;;;;;;5099120;28;20023;-76
2021/07/07 09:24:43;;;;;;;6.60;3.15;;;30.10;92.00;;;;;;5094894;28;20031;-77
2021/07/07 09:27:16;;;;;;;5.68;3.60;;;30.10;92.40;;;;;;5084372;28;20081;-77
2021/07/07 09:29:52;;;;;;;7.72;2.85;;;30.00;92.00;;;;;;5083169;28;20070;-74
2021/07/07 09:32:20;;;;;;;11.88;4.57;;;30.60;91.50;;;;;;5091252;28;20127;-76
2021/07/07 09:34:50;;;;;;;10.40;3.35;;;30.80;91.10;;;;;;5095618;28;20036;-75
2021/07/07 09:37:38;;;;;;;4.63;2.75;;;30.70;91.30;;;;;;5102180;28;20047;-76
2021/07/07 09:40:07;;;;;;;8.10;3.15;;;30.30;90.90;;;;;;5100171;28;20016;-77
2021/07/07 09:42:35;;;;;;;6.47;2.55;;;30.50;90.80;;;;;;5084873;28;20024;-76
2021/07/07 09:45:01;;;;;;;4.15;2.40;;;30.80;90.60;;;;;;5105097;28;20087;-77
2021/07/07 09:47:28;;;;;;;5.97;2.15;;;31.00;89.70;;;;;;5104849;28;20084;-76
2021/07/07 09:49:54;;;;;;;3.72;2.25;;;31.00;90.40;;;;;;5099568;28;20043;-76
2021/07/07 09:52:28;;;;;;;5.18;2.72;;;31.40;89.90;;;;;;5094345;28;20031;-78
2021/07/07 09:54:55;;;;;;;7.78;2.50;;;31.50;89.50;;;;;;5102034;28;20946;-77
2021/07/07 09:57:22;;;;;;;6.10;2.10;;;31.40;89.20;;;;;;5088866;28;20032;-76
2021/07/07 09:59:48;;;;;;;3.92;2.13;;;31.40;87.40;;;;;;5104705;28;20023;-76
2021/07/07 10:02:15;;;;;;;3.80;2.20;;;31.60;87.50;;;;;;5103696;28;20028;-76
2021/07/07 10:04:43;;;;;;;5.97;2.30;;;31.40;84.60;;;;;;5102900;28;20054;-75
2021/07/07 10:07:13;;;;;;;6.78;1.75;;;31.50;85.70;;;;;;5089664;28;20019;-75
2021/07/07 10:09:43;;;;;;;3.42;2.05;;;31.80;83.90;;;;;;5083456;28;20085;-77
2021/07/07 10:12:09;;;;;;;4.63;1.92;;;32.20;83.50;;;;;;5101505;28;20127;-78
2021/07/07 10:14:35;;;;;;;4.22;2.40;;;32.30;83.50;;;;;;5084888;28;20412;-76
2021/07/07 10:17:02;;;;;;;3.08;1.77;;;32.30;83.40;;;;;;5101802;28;20035;-76
2021/07/07 10:19:28;;;;;;;4.43;2.00;;;32.40;83.30;;;;;;5088905;28;20027;-76
2021/07/07 10:21:55;;;;;;;4.70;1.95;;;32.70;82.00;;;;;;5082314;28;20056;-76
2021/07/07 10:24:33;;;;;;;3.47;2.05;;;32.40;82.50;;;;;;5083512;28;20036;-76
2021/07/07 10:27:03;;;;;;;4.10;2.05;;;32.40;82.20;;;;;;5098595;28;20557;-76
2021/07/07 10:29:29;;;;;;;4.65;2.20;;;32.40;83.00;;;;;;5092931;28;20030;-75
2021/07/07 10:31:59;;;;;;;4.78;1.88;;;32.40;85.00;;;;;;5101345;28;20170;-76
2021/07/07 10:34:29;;;;;;;4.07;2.00;;;32.60;82.70;;;;;;5097036;28;20048;-78
2021/07/07 10:36:56;;;;;;;3.83;1.95;;;32.60;82.80;;;;;;5103698;28;20131;-78
2021/07/07 10:39:24;;;;;;;5.10;2.55;;;32.80;81.40;;;;;;5102090;28;20078;-76
2021/07/07 10:41:55;;;;;;;4.45;1.85;;;32.60;83.90;;;;;;5091562;28;20097;-76
2021/07/07 10:44:27;;;;;;;3.35;1.80;;;32.60;83.60;;;;;;5086536;28;20023;-75
2021/07/07 10:47:02;;;;;;;4.57;1.80;;;32.70;83.20;;;;;;5102897;28;20024;-76
2021/07/07 10:49:36;;;;;;;4.45;2.22;;;32.70;82.00;;;;;;5084721;28;20467;-76
2021/07/07 10:52:03;;;;;;;4.05;1.98;;;32.40;81.20;;;;;;5088271;28;20048;-76
2021/07/07 10:54:32;;;;;;;5.93;2.00;;;32.10;82.00;;;;;;5081450;28;20019;-76
2021/07/07 10:57:00;;;;;;;5.10;2.15;;;32.30;82.20;;;;;;5090495;28;20524;-77
2021/07/07 10:59:45;;;;;;;4.65;1.80;;;32.50;81.50;;;;;;5090336;28;20035;-76
2021/07/07 11:02:20;;;;;;;3.60;1.83;;;32.80;81.70;;;;;;5096096;28;20034;-76
2021/07/07 11:04:58;;;;;;;3.08;1.80;;;32.80;81.60;;;;;;5091368;28;20618;-75
2021/07/07 11:07:35;;;;;;;3.85;2.03;;;33.00;81.80;;;;;;5101986;28;20112;-76
2021/07/07 11:10:06;;;;;;;5.22;2.08;;;33.40;79.70;;;;;;5106923;28;20036;-76
2021/07/07 11:12:40;;;;;;;3.55;1.85;;;33.60;79.10;;;;;;5103084;28;20056;-76
2021/07/07 11:15:16;;;;;;;3.65;1.83;;;33.50;80.20;;;;;;5100568;28;20032;-76
2021/07/07 11:17:45;;;;;;;3.03;1.67;;;33.70;80.10;;;;;;5105183;28;20028;-75
2021/07/07 11:20:15;;;;;;;6.07;1.75;;;33.60;78.20;;;;;;5105345;28;20043;-75
2021/07/07 11:22:44;;;;;;;4.05;1.75;;;33.30;78.70;;;;;;5095236;28;20047;-76
2021/07/07 11:25:13;;;;;;;4.07;1.70;;;33.60;79.40;;;;;;5088446;28;20035;-76
2021/07/07 11:27:39;;;;;;;4.45;1.73;;;33.70;77.90;;;;;;5101784;28;20020;-79
2021/07/07 11:30:08;;;;;;;4.70;2.03;;;33.90;79.90;;;;;;5104418;28;20016;-76
2021/07/07 11:32:36;;;;;;;5.93;1.90;;;33.90;78.30;;;;;;5093875;28;20085;-76
2021/07/07 11:35:11;;;;;;;3.95;2.08;;;33.90;77.60;;;;;;5086638;28;20028;-76
2021/07/07 11:37:38;;;;;;;3.17;1.70;;;33.90;76.90;;;;;;5078972;28;20089;-76
2021/07/07 11:40:18;;;;;;;4.57;2.03;;;33.90;76.90;;;;;;5089255;28;20059;-76
2021/07/07 11:42:56;;;;;;;3.53;1.77;;;33.60;77.10;;;;;;5069641;28;20051;-76
2021/07/07 11:45:25;;;;;;;4.00;2.58;;;33.60;77.10;;;;;;5091226;28;20039;-76
2021/07/07 11:47:55;;;;;;;3.53;1.60;;;33.00;77.40;;;;;;5106496;28;20028;-76
2021/07/07 11:50:21;;;;;;;8.40;2.05;;;32.80;77.30;;;;;;5087192;28;20031;-76
2021/07/07 11:52:55;;;;;;;3.13;1.73;;;32.80;78.80;;;;;;5085263;28;20655;-76
2021/07/07 11:55:42;;;;;;;3.38;1.80;;;32.80;77.80;;;;;;5087285;28;20539;-77
2021/07/07 11:58:09;;;;;;;3.30;2.00;;;32.70;77.30;;;;;;5068359;28;20035;-76
2021/07/07 12:00:37;;;;;;;3.88;2.03;;;33.00;77.90;;;;;;5094792;28;20070;-75
2021/07/07 12:03:03;;;;;;;3.40;1.90;;;32.70;77.70;;;;;;5106156;28;20103;-76
2021/07/07 12:05:28;;;;;;;4.13;1.80;;;33.00;78.60;;;;;;5100880;28;20114;-76
2021/07/07 12:08:15;;;;;;;3.33;1.65;;;33.20;77.60;;;;;;5104214;28;20466;-76
2021/07/07 12:10:41;;;;;;;6.95;1.98;;;33.00;76.60;;;;;;5104521;28;20032;-76
2021/07/07 12:13:29;;;;;;;4.22;1.60;;;33.30;75.60;;;;;;5107216;28;20568;-76
2021/07/07 12:16:24;;;;;;;9.77;2.00;;;32.80;74.90;;;;;;5105820;28;20028;-76
2021/07/07 12:18:52;;;;;;;4.00;1.85;;;32.80;75.10;;;;;;5104467;28;20024;-76
2021/07/07 12:21:24;;;;;;;2.65;1.60;;;32.80;75.60;;;;;;5102753;28;20051;-79
2021/07/07 12:23:53;;;;;;;3.35;2.10;;;32.80;74.50;;;;;;5100031;28;20089;-75
2021/07/07 12:26:24;;;;;;;4.32;1.60;;;33.10;75.20;;;;;;5106909;28;20035;-75
2021/07/07 12:28:53;;;;;;;3.67;1.70;;;33.10;75.90;;;;;;5101963;28;20031;-76
2021/07/07 12:31:19;;;;;;;5.63;1.90;;;33.20;76.00;;;;;;5106473;28;20023;-76
2021/07/07 12:33:46;;;;;;;6.15;1.88;;;33.50;75.80;;;;;;5091931;28;20035;-75
2021/07/07 12:36:13;;;;;;;6.18;2.28;;;33.40;74.70;;;;;;5086702;28;20039;-75
2021/07/07 12:38:46;;;;;;;5.88;2.10;;;33.70;74.00;;;;;;5092053;28;20020;-75
2021/07/07 12:41:12;;;;;;;;;;;33.50;74.90;;;;;;5102576;28;20031;-75
2021/07/07 12:43:57;;;;;;;4.75;2.13;;;33.40;73.20;;;;;;5104166;28;19903;-75
2021/07/07 12:46:24;;;;;;;4.20;1.90;;;33.70;75.40;;;;;;5103389;28;20024;-76
2021/07/07 12:48:54;;;;;;;3.08;1.80;;;33.90;73.80;;;;;;5095978;28;20035;-76